Time;durP1;ratioP1;P1;durP2;ratioP2;P2;SDS_P1;SDS_P2;PMS_P1;PMS_P2;Temp;Humidity;BMP_temperature;BMP_pressure;BME280_temperature;BME280_humidity;BME280_pressure;Samples;Min_cycle;Max_cycle;Signal;HPM_P1;HPM_P2
2021/04/15 00:00:48;;;;;;;14.50;11.97;;;0.00;99.90;;;;;;5011254;28;20486;-67
2021/04/15 00:03:17;;;;;;;18.30;13.13;;;0.00;99.90;;;;;;5011380;28;20536;-68
2021/04/15 00:05:45;;;;;;;16.17;14.10;;;0.00;99.90;;;;;;5011371;28;20478;-66
2021/04/15 00:08:14;;;;;;;16.63;12.73;;;-0.10;99.90;;;;;;5011519;28;20544;-67
2021/04/15 00:10:43;;;;;;;19.30;14.57;;;-0.10;99.90;;;;;;5011335;28;20588;-68
2021/04/15 00:13:16;;;;;;;16.47;12.70;;;-0.20;99.90;;;;;;5011011;28;20977;-68
2021/04/15 00:15:42;;;;;;;18.60;13.70;;;-0.10;99.90;;;;;;5011427;28;20794;-68
2021/04/15 00:18:09;;;;;;;15.10;12.97;;;-0.10;99.90;;;;;;5011418;28;20500;-66
2021/04/15 00:20:35;;;;;;;15.67;14.07;;;-0.20;99.90;;;;;;5011315;28;20470;-66
2021/04/15 00:23:01;;;;;;;17.10;13.87;;;-0.30;99.90;;;;;;5011059;28;20553;-66
2021/04/15 00:25:29;;;;;;;15.60;13.60;;;-0.30;99.90;;;;;;5011340;28;20474;-66
2021/04/15 00:27:56;;;;;;;16.97;13.57;;;-0.30;99.90;;;;;;5013463;28;20449;-65
2021/04/15 00:30:23;;;;;;;19.33;15.47;;;-0.30;99.90;;;;;;5013031;28;20478;-67
2021/04/15 00:32:50;;;;;;;17.93;14.10;;;-0.40;99.90;;;;;;5011974;28;20454;-67
2021/04/15 00:35:18;;;;;;;16.73;13.53;;;-0.40;99.90;;;;;;5011924;28;20430;-67
2021/04/15 00:37:44;;;;;;;15.37;13.17;;;-0.40;99.90;;;;;;5011929;28;20477;-67
2021/04/15 00:40:12;;;;;;;18.70;14.33;;;-0.40;99.90;;;;;;5011863;28;21028;-66
2021/04/15 00:42:40;;;;;;;15.77;12.60;;;-0.40;99.90;;;;;;5011961;28;20533;-66
2021/04/15 00:45:10;;;;;;;14.63;13.03;;;-0.30;99.90;;;;;;5012217;28;20508;-66
2021/04/15 00:47:39;;;;;;;17.13;13.40;;;-0.40;99.90;;;;;;5011836;28;20477;-66
2021/04/15 00:50:11;;;;;;;15.57;13.73;;;-0.30;99.90;;;;;;5011968;28;20481;-65
2021/04/15 00:52:44;;;;;;;19.40;14.70;;;-0.40;99.90;;;;;;5011444;28;20446;-67
2021/04/15 00:55:14;;;;;;;18.87;15.23;;;-0.40;99.90;;;;;;5012143;28;20986;-67
2021/04/15 00:57:45;;;;;;;16.30;13.17;;;-0.40;99.90;;;;;;5012058;28;20521;-65
2021/04/15 01:00:12;;;;;;;20.17;15.00;;;-0.30;99.90;;;;;;5011927;28;20426;-67
2021/04/15 01:02:38;;;;;;;18.87;15.10;;;-0.30;99.90;;;;;;5010566;28;20536;-67
2021/04/15 01:05:10;;;;;;;16.80;14.10;;;-0.30;99.90;;;;;;5010523;28;20456;-66
2021/04/15 01:07:37;;;;;;;18.77;14.50;;;-0.30;99.90;;;;;;5010770;28;20536;-66
2021/04/15 01:10:04;;;;;;;20.67;15.97;;;-0.30;99.90;;;;;;5010266;28;20450;-66
2021/04/15 01:12:51;;;;;;;24.93;15.40;;;-0.30;99.90;;;;;;5010275;28;20441;-67
2021/04/15 01:15:30;;;;;;;20.97;15.00;;;-0.40;99.90;;;;;;5010190;28;20449;-66
2021/04/15 01:18:03;;;;;;;17.60;13.60;;;-0.50;99.90;;;;;;5010628;28;20553;-66
2021/04/15 01:21:12;;;;;;;17.20;14.70;;;-0.60;99.90;;;;;;5010465;28;20465;-66
2021/04/15 01:23:45;;;;;;;17.43;14.73;;;-0.60;99.90;;;;;;5009977;28;20548;-66
2021/04/15 01:26:38;;;;;;;17.53;15.13;;;-0.70;99.90;;;;;;5010221;28;20449;-67
2021/04/15 01:29:14;;;;;;;21.17;15.93;;;-0.70;99.90;;;;;;5010309;28;21045;-66
2021/04/15 01:31:50;;;;;;;20.00;16.03;;;-0.70;99.90;;;;;;5010033;28;20572;-66
2021/04/15 01:34:22;;;;;;;18.80;15.67;;;-0.60;99.90;;;;;;5010094;28;20492;-66
2021/04/15 01:36:57;;;;;;;18.67;15.77;;;-0.60;99.90;;;;;;5010526;28;20456;-66
2021/04/15 01:39:29;;;;;;;19.67;14.40;;;-0.70;99.90;;;;;;5010701;28;20445;-65
2021/04/15 01:42:00;;;;;;;17.87;15.90;;;-0.60;99.90;;;;;;5013884;28;20573;-69
2021/04/15 01:44:32;;;;;;;20.40;15.20;;;-0.60;99.90;;;;;;5013564;28;20462;-68
2021/04/15 01:47:03;;;;;;;20.53;15.90;;;-0.60;99.90;;;;;;5014184;28;20483;-67
2021/04/15 01:49:32;;;;;;;22.47;16.40;;;-0.50;99.90;;;;;;5014089;28;20499;-67
2021/04/15 01:51:59;;;;;;;18.77;15.17;;;-0.50;99.90;;;;;;5013644;28;20485;-67
2021/04/15 01:54:32;;;;;;;20.73;15.30;;;-0.60;99.90;;;;;;5013705;28;20465;-68
2021/04/15 01:57:03;;;;;;;22.53;16.23;;;-0.50;99.90;;;;;;5013968;28;21023;-66
2021/04/15 01:59:34;;;;;;;18.90;15.07;;;-0.50;99.90;;;;;;5014608;28;20446;-68
2021/04/15 02:02:07;;;;;;;20.33;15.73;;;-0.60;99.90;;;;;;5014382;28;20489;-67
2021/04/15 02:04:39;;;;;;;19.07;14.30;;;-0.60;99.90;;;;;;5013184;28;20937;-68
2021/04/15 02:07:09;;;;;;;16.90;13.47;;;-0.70;99.90;;;;;;5013449;28;20479;-67
2021/04/15 02:09:38;;;;;;;16.60;13.40;;;-0.70;99.90;;;;;;5013257;28;20445;-67
2021/04/15 02:12:08;;;;;;;15.30;12.53;;;-0.80;99.90;;;;;;5013166;28;20497;-67
2021/04/15 02:14:37;;;;;;;18.73;14.43;;;-0.90;99.90;;;;;;5013445;28;20445;-68
2021/04/15 02:17:07;;;;;;;17.30;13.67;;;-0.90;99.90;;;;;;5013273;28;20540;-68
2021/04/15 02:19:37;;;;;;;19.03;14.97;;;-0.90;99.90;;;;;;5013211;28;20446;-67
2021/04/15 02:22:09;;;;;;;19.13;14.27;;;-1.00;99.90;;;;;;5013014;28;20465;-68
2021/04/15 02:24:42;;;;;;;20.70;15.27;;;-1.00;99.90;;;;;;5012720;28;20453;-67
2021/04/15 02:27:14;;;;;;;18.77;14.07;;;-0.90;99.90;;;;;;5013323;28;20816;-68
2021/04/15 02:29:45;;;;;;;18.27;14.17;;;-1.00;99.90;;;;;;5013097;28;20551;-67
2021/04/15 02:32:18;;;;;;;18.77;14.77;;;-1.00;99.90;;;;;;5012697;28;20569;-67
2021/04/15 02:34:48;;;;;;;18.20;15.10;;;-1.10;99.90;;;;;;5012745;28;20861;-65
2021/04/15 02:37:18;;;;;;;23.17;17.17;;;-1.10;99.90;;;;;;5012747;28;20957;-68
2021/04/15 02:39:47;;;;;;;23.10;14.50;;;-1.00;99.90;;;;;;5012904;28;20541;-65
2021/04/15 02:42:22;;;;;;;22.73;15.40;;;-1.10;99.90;;;;;;5012700;28;21143;-65
2021/04/15 02:44:57;;;;;;;19.70;15.93;;;-1.10;99.90;;;;;;5012821;28;20487;-65
2021/04/15 02:47:28;;;;;;;23.57;16.77;;;-1.00;99.90;;;;;;5012788;28;20503;-66
2021/04/15 02:49:57;;;;;;;20.13;15.80;;;-1.10;99.90;;;;;;5012798;28;20449;-64
2021/04/15 02:52:29;;;;;;;20.73;15.57;;;-1.10;99.90;;;;;;5012381;28;20461;-67
2021/04/15 02:54:59;;;;;;;19.30;15.20;;;-1.10;99.90;;;;;;5011968;28;20525;-66
2021/04/15 02:57:31;;;;;;;20.57;14.70;;;-1.20;99.90;;;;;;5012309;28;20499;-67
2021/04/15 03:00:04;;;;;;;19.37;14.80;;;-1.30;99.90;;;;;;5012767;28;20444;-65
2021/04/15 03:02:34;;;;;;;17.30;14.57;;;-1.40;99.90;;;;;;5012141;28;20446;-65
2021/04/15 03:05:05;;;;;;;19.37;14.70;;;-1.30;99.90;;;;;;5012697;28;20810;-65
2021/04/15 03:07:36;;;;;;;23.53;16.90;;;-1.40;99.90;;;;;;5012203;28;20914;-65
2021/04/15 03:10:04;;;;;;;19.17;15.43;;;-1.30;99.90;;;;;;5012188;28;20469;-65
2021/04/15 03:12:36;;;;;;;22.67;16.10;;;-1.30;99.90;;;;;;5012156;28;20445;-65
2021/04/15 03:15:10;;;;;;;18.43;14.50;;;-1.20;99.90;;;;;;5012126;28;20456;-65
2021/04/15 03:17:40;;;;;;;22.70;15.20;;;-1.20;99.90;;;;;;5012139;28;20827;-65
2021/04/15 03:20:12;;;;;;;19.90;15.83;;;-1.20;99.90;;;;;;5011843;28;20945;-67
2021/04/15 03:22:45;;;;;;;20.90;16.17;;;-1.20;99.90;;;;;;5011492;28;20458;-66
2021/04/15 03:25:12;;;;;;;22.00;16.80;;;-1.20;99.90;;;;;;5011944;28;20452;-66
2021/04/15 03:27:43;;;;;;;19.17;15.50;;;-1.20;99.90;;;;;;5011955;28;20452;-67
2021/04/15 03:30:15;;;;;;;20.20;15.17;;;-1.20;99.90;;;;;;5011603;28;20533;-66
2021/04/15 03:32:46;;;;;;;19.87;16.50;;;-1.30;99.90;;;;;;5011729;28;20485;-66
2021/04/15 03:35:23;;;;;;;21.77;16.97;;;-1.30;99.90;;;;;;5011821;28;20529;-66
2021/04/15 03:37:54;;;;;;;22.40;17.27;;;-1.40;99.90;;;;;;5011954;28;20552;-66
2021/04/15 03:40:25;;;;;;;21.77;15.87;;;-1.30;99.90;;;;;;5011693;28;20466;-66
2021/04/15 03:42:55;;;;;;;24.87;16.37;;;-1.30;99.90;;;;;;5011402;28;20446;-66
2021/04/15 03:45:28;;;;;;;21.30;15.30;;;-1.30;99.90;;;;;;5011435;28;20545;-66
2021/04/15 03:47:59;;;;;;;21.00;16.50;;;-1.30;99.90;;;;;;5011735;28;20548;-67
2021/04/15 03:50:30;;;;;;;21.97;16.83;;;-1.30;99.90;;;;;;5011465;28;21001;-65
2021/04/15 03:52:59;;;;;;;21.03;15.70;;;-1.30;99.90;;;;;;5011324;28;20537;-66
2021/04/15 03:55:31;;;;;;;19.07;15.13;;;-1.30;99.90;;;;;;5011428;28;20442;-65
2021/04/15 03:58:02;;;;;;;24.40;16.10;;;-1.40;99.90;;;;;;5011261;28;20445;-66
2021/04/15 04:00:35;;;;;;;18.30;14.73;;;-1.50;99.90;;;;;;5011331;28;20458;-65
2021/04/15 04:03:06;;;;;;;17.90;15.17;;;-1.60;99.90;;;;;;5011057;28;20537;-66
2021/04/15 04:05:37;;;;;;;19.80;15.33;;;-1.60;99.90;;;;;;5011576;28;20561;-65
2021/04/15 04:08:08;;;;;;;21.13;15.47;;;-1.60;99.90;;;;;;5011274;28;20949;-65
2021/04/15 04:10:38;;;;;;;21.13;16.40;;;-1.60;99.90;;;;;;5011198;28;20492;-65
2021/04/15 04:13:23;;;;;;;25.30;16.73;;;-1.60;99.90;;;;;;5011531;28;20464;-67
2021/04/15 04:15:54;;;;;;;21.33;16.57;;;-1.60;99.90;;;;;;5011274;28;21229;-66
2021/04/15 04:18:26;;;;;;;20.93;15.90;;;-1.60;99.90;;;;;;5011457;28;20497;-66
2021/04/15 04:20:56;;;;;;;21.00;16.40;;;-1.60;99.90;;;;;;5011238;28;20462;-66
2021/04/15 04:23:31;;;;;;;20.40;15.30;;;-1.60;99.90;;;;;;5010602;28;20552;-66
2021/04/15 04:26:05;;;;;;;23.20;16.10;;;-1.60;99.90;;;;;;5010954;28;20994;-69
2021/04/15 04:28:37;;;;;;;23.80;19.03;;;-1.60;99.90;;;;;;5010745;28;20541;-66
2021/04/15 04:31:08;;;;;;;23.70;15.70;;;-1.60;99.90;;;;;;5010563;28;20607;-66
2021/04/15 04:33:39;;;;;;;22.87;16.57;;;-1.60;99.90;;;;;;5010408;28;20511;-66
2021/04/15 04:36:08;;;;;;;20.80;16.50;;;-1.70;99.90;;;;;;5010897;28;20541;-67
2021/04/15 04:38:36;;;;;;;23.17;16.07;;;-1.70;99.90;;;;;;5010589;28;20541;-66
2021/04/15 04:41:08;;;;;;;20.13;17.67;;;-1.70;99.90;;;;;;5010210;28;20458;-67
2021/04/15 04:43:43;;;;;;;22.20;17.40;;;-1.70;99.90;;;;;;5010197;28;20541;-66
2021/04/15 04:46:16;;;;;;;21.17;17.63;;;-1.60;99.90;;;;;;5011100;28;20441;-66
2021/04/15 04:48:50;;;;;;;21.13;16.70;;;-1.50;99.90;;;;;;5010818;28;20452;-66
2021/04/15 04:51:19;;;;;;;25.10;16.57;;;-1.50;99.90;;;;;;5010558;28;20849;-66
2021/04/15 04:53:48;;;;;;;20.50;16.37;;;-1.60;99.90;;;;;;5010109;28;21071;-65
2021/04/15 04:56:25;;;;;;;20.20;16.83;;;-1.50;99.90;;;;;;5010111;28;20462;-68
2021/04/15 04:58:53;;;;;;;20.60;16.90;;;-1.50;99.90;;;;;;5010134;28;20525;-67
2021/04/15 05:01:21;;;;;;;23.60;18.37;;;-1.60;99.90;;;;;;5009704;28;20493;-67
2021/04/15 05:03:48;;;;;;;25.03;19.07;;;-1.50;99.90;;;;;;5009888;28;20444;-67
2021/04/15 05:06:22;;;;;;;22.70;16.40;;;-1.50;99.90;;;;;;5001656;28;20452;-66
2021/04/15 05:08:55;;;;;;;22.93;16.27;;;-1.40;99.90;;;;;;5009706;28;20449;-68
2021/04/15 05:11:22;;;;;;;19.67;16.23;;;-1.40;99.90;;;;;;5007416;28;20494;-67
2021/04/15 05:13:50;;;;;;;22.73;16.80;;;-1.50;99.90;;;;;;5009448;28;20437;-66
2021/04/15 05:16:16;;;;;;;36.43;17.53;;;-1.40;99.90;;;;;;5013008;28;20438;-66
2021/04/15 05:18:44;;;;;;;23.60;17.90;;;-1.30;99.90;;;;;;5006071;28;20508;-66
2021/04/15 05:21:15;;;;;;;20.90;15.97;;;-1.40;99.90;;;;;;4998444;28;20883;-68
2021/04/15 05:23:44;;;;;;;22.67;18.37;;;-1.30;99.90;;;;;;5009565;28;20454;-68
2021/04/15 05:26:15;;;;;;;19.63;16.80;;;-1.20;99.90;;;;;;5010776;28;20494;-67
2021/04/15 05:28:43;;;;;;;22.83;19.40;;;-1.20;99.90;;;;;;5012120;28;21246;-67
2021/04/15 05:31:13;;;;;;;24.87;16.17;;;-1.20;99.90;;;;;;5012331;28;20489;-68
2021/04/15 05:33:40;;;;;;;21.23;18.30;;;-1.10;99.90;;;;;;5012339;28;20437;-66
2021/04/15 05:36:11;;;;;;;22.23;18.43;;;-1.10;99.90;;;;;;5010999;28;20450;-67
2021/04/15 05:38:43;;;;;;;22.50;17.60;;;-1.10;99.90;;;;;;5005036;28;20560;-67
2021/04/15 05:41:17;;;;;;;27.03;18.43;;;-1.00;99.90;;;;;;5008198;28;20468;-65
2021/04/15 05:43:47;;;;;;;28.47;17.90;;;-1.00;99.90;;;;;;5009979;28;20533;-68
2021/04/15 05:46:19;;;;;;;23.13;18.93;;;-0.90;99.90;;;;;;5008577;28;20453;-68
2021/04/15 05:48:47;;;;;;;25.93;19.63;;;-0.80;99.90;;;;;;5010033;28;20456;-66
2021/04/15 05:51:22;;;;;;;23.90;17.70;;;-0.80;99.90;;;;;;5010055;28;20588;-66
2021/04/15 05:53:53;;;;;;;22.00;16.87;;;-0.80;99.90;;;;;;5010997;28;20457;-67
2021/04/15 05:56:24;;;;;;;22.07;16.80;;;-0.70;99.90;;;;;;5011548;28;21281;-67
2021/04/15 05:59:06;;;;;;;27.00;18.30;;;-0.60;99.90;;;;;;5010256;28;20449;-68
2021/04/15 06:01:42;;;;;;;25.30;18.27;;;-0.50;99.90;;;;;;5010728;28;20540;-67
2021/04/15 06:04:18;;;;;;;25.90;19.50;;;-0.50;99.90;;;;;;5010768;28;20433;-68
2021/04/15 06:06:47;;;;;;;23.40;18.10;;;-0.40;99.90;;;;;;5011054;28;21199;-68
2021/04/15 06:09:14;;;;;;;22.93;16.80;;;-0.20;99.90;;;;;;5010779;28;20524;-67
2021/04/15 06:11:56;;;;;;;24.37;18.30;;;-0.10;99.90;;;;;;5010446;28;20859;-69
2021/04/15 06:14:27;;;;;;;24.40;18.40;;;0.00;99.90;;;;;;5002814;28;20458;-72
2021/04/15 06:17:20;;;;;;;22.00;16.80;;;0.20;99.90;;;;;;5009812;28;20540;-67
2021/04/15 06:19:52;;;;;;;19.57;16.00;;;0.30;99.90;;;;;;4989643;28;20958;-66
2021/04/15 06:22:22;;;;;;;20.57;15.90;;;0.40;99.90;;;;;;5007595;28;20461;-66
2021/04/15 06:24:54;;;;;;;19.50;16.13;;;0.50;99.90;;;;;;5009517;28;20468;-67
2021/04/15 06:27:21;;;;;;;19.57;16.37;;;0.60;99.90;;;;;;5009523;28;20495;-67
2021/04/15 06:29:57;;;;;;;20.03;16.77;;;0.70;99.90;;;;;;5009005;28;20533;-67
2021/04/15 06:32:28;;;;;;;19.07;16.03;;;0.80;99.90;;;;;;5007974;28;20477;-66
2021/04/15 06:34:55;;;;;;;20.33;15.37;;;0.90;99.90;;;;;;5009677;28;20525;-66
2021/04/15 06:37:34;;;;;;;22.03;15.83;;;1.00;99.90;;;;;;5009925;28;20821;-67
2021/04/15 06:40:36;;;;;;;17.67;15.10;;;1.10;99.90;;;;;;5009211;28;20533;-67
2021/04/15 06:43:19;;;;;;;17.10;14.07;;;1.20;99.90;;;;;;4989245;28;20453;-67
2021/04/15 06:45:57;;;;;;;16.10;14.40;;;1.30;99.90;;;;;;5001987;28;21220;-67
2021/04/15 06:48:57;;;;;;;17.37;13.53;;;1.40;99.90;;;;;;5008366;28;21074;-66
2021/04/15 06:51:45;;;;;;;17.77;13.93;;;1.50;99.90;;;;;;5006562;28;21176;-66
2021/04/15 06:54:30;;;;;;;14.97;13.47;;;1.60;99.90;;;;;;5008196;28;20453;-66
2021/04/15 06:57:24;;;;;;;17.27;14.00;;;1.60;99.90;;;;;;5009653;28;20605;-67
2021/04/15 07:00:06;;;;;;;14.73;12.87;;;1.70;99.90;;;;;;5008741;28;20533;-66
2021/04/15 07:02:47;;;;;;;18.17;13.90;;;1.80;99.90;;;;;;5008711;28;21107;-67
2021/04/15 07:05:17;;;;;;;18.30;12.83;;;2.00;99.90;;;;;;5008779;28;20446;-68
2021/04/15 07:07:51;;;;;;;15.27;12.50;;;2.10;99.90;;;;;;5008895;28;20959;-66
2021/04/15 07:10:28;;;;;;;14.30;12.47;;;2.20;99.90;;;;;;5009880;28;20477;-67
2021/04/15 07:13:29;;;;;;;12.47;11.13;;;2.20;99.90;;;;;;5009412;28;21020;-67
2021/04/15 07:16:22;;;;;;;15.37;13.47;;;2.30;99.90;;;;;;5006794;28;20513;-67
2021/04/15 07:19:08;;;;;;;15.50;12.10;;;2.40;99.90;;;;;;5003348;28;20517;-68
2021/04/15 07:22:08;;;;;;;13.13;11.83;;;2.50;99.90;;;;;;4996882;28;20581;-67
2021/04/15 07:24:46;;;;;;;13.73;10.60;;;2.70;99.90;;;;;;5009425;28;20514;-67
2021/04/15 07:27:44;;;;;;;12.23;10.23;;;2.80;99.90;;;;;;5009318;28;20457;-67
2021/04/15 07:30:30;;;;;;;12.23;9.73;;;2.80;99.90;;;;;;5009464;28;20473;-68
2021/04/15 07:33:22;;;;;;;14.60;10.40;;;3.00;99.90;;;;;;5009212;28;20469;-67
2021/04/15 07:36:02;;;;;;;12.40;10.57;;;3.20;99.90;;;;;;5009487;28;20473;-67
2021/04/15 07:38:42;;;;;;;11.70;10.03;;;3.40;99.90;;;;;;5008877;28;20488;-67
2021/04/15 07:41:27;;;;;;;12.33;11.03;;;3.50;99.90;;;;;;5009329;28;20493;-69
2021/04/15 07:44:29;;;;;;;13.50;10.87;;;3.70;99.90;;;;;;5008922;28;20449;-67
2021/04/15 07:47:16;;;;;;;11.07;9.90;;;3.80;99.90;;;;;;5003605;28;20445;-69
2021/04/15 07:50:24;;;;;;;10.70;9.30;;;3.80;99.90;;;;;;5006935;28;20785;-67
2021/04/15 07:53:19;;;;;;;14.37;9.90;;;3.90;99.90;;;;;;5008851;28;20509;-68
2021/04/15 07:56:31;;;;;;;12.03;8.30;;;4.00;99.90;;;;;;5001264;28;20457;-69
2021/04/15 07:59:16;;;;;;;10.47;8.43;;;4.00;99.90;;;;;;5007913;28;20902;-68
2021/04/15 08:02:03;;;;;;;10.20;8.87;;;4.10;99.90;;;;;;5008823;28;20457;-67
2021/04/15 08:05:07;;;;;;;10.80;8.70;;;4.30;99.90;;;;;;5008680;28;20521;-67
2021/04/15 08:08:18;;;;;;;12.13;7.80;;;4.50;99.90;;;;;;4989333;28;20530;-67
2021/04/15 08:11:09;;;;;;;10.03;7.07;;;4.70;99.90;;;;;;5005560;28;20470;-68
2021/04/15 08:13:47;;;;;;;11.53;7.60;;;4.80;99.90;;;;;;5002611;28;20483;-67
2021/04/15 08:16:39;;;;;;;9.10;7.33;;;5.00;99.90;;;;;;5008790;28;20449;-67
2021/04/15 08:19:29;;;;;;;9.90;7.60;;;5.10;99.90;;;;;;5009015;28;20486;-68
2021/04/15 08:22:04;;;;;;;10.00;7.30;;;5.30;99.90;;;;;;5008944;28;20468;-67
2021/04/15 08:24:37;;;;;;;9.70;7.13;;;5.50;99.90;;;;;;5008296;28;20441;-68
2021/04/15 08:27:33;;;;;;;8.50;7.30;;;5.50;99.90;;;;;;5008974;28;20453;-67
2021/04/15 08:30:29;;;;;;;9.30;7.97;;;5.60;99.90;;;;;;5009182;28;20485;-68
2021/04/15 08:33:28;;;;;;;9.90;6.70;;;5.60;99.90;;;;;;5008205;28;20491;-68
2021/04/15 08:36:16;;;;;;;8.87;7.50;;;5.80;99.90;;;;;;5008716;28;20454;-68
2021/04/15 08:38:57;;;;;;;7.07;6.07;;;6.10;99.90;;;;;;5008856;28;20481;-67
2021/04/15 08:41:45;;;;;;;6.53;5.93;;;6.20;99.90;;;;;;5009019;28;20827;-67
2021/04/15 08:44:32;;;;;;;9.17;7.60;;;6.40;99.90;;;;;;5008417;28;20478;-70
2021/04/15 08:47:08;;;;;;;8.37;6.63;;;6.50;99.90;;;;;;5009019;28;20478;-67
2021/04/15 08:49:45;;;;;;;8.03;6.30;;;6.60;99.90;;;;;;5009069;28;20485;-68
2021/04/15 08:52:24;;;;;;;6.50;5.90;;;6.80;99.90;;;;;;5008074;28;20495;-68
2021/04/15 08:55:06;;;;;;;9.57;6.60;;;6.80;99.90;;;;;;5002534;28;20474;-67
2021/04/15 08:57:41;;;;;;;8.47;6.60;;;7.00;99.90;;;;;;5008232;28;20517;-67
2021/04/15 09:00:22;;;;;;;7.53;6.53;;;7.20;99.90;;;;;;5008184;28;20441;-67
2021/04/15 09:02:59;;;;;;;8.07;6.27;;;7.40;99.90;;;;;;5001691;28;20433;-69
2021/04/15 09:05:35;;;;;;;9.33;6.80;;;7.20;99.90;;;;;;5008334;28;20471;-67
2021/04/15 09:08:17;;;;;;;7.27;6.57;;;7.30;99.90;;;;;;5008619;28;20449;-67
2021/04/15 09:10:54;;;;;;;9.27;6.47;;;7.30;99.90;;;;;;5007989;28;20556;-67
2021/04/15 09:13:30;;;;;;;7.60;5.50;;;7.30;99.90;;;;;;5008021;28;20679;-67
2021/04/15 09:16:17;;;;;;;5.77;5.20;;;7.50;99.90;;;;;;5000445;28;20543;-67
2021/04/15 09:18:54;;;;;;;6.60;5.23;;;7.80;99.90;;;;;;5006831;28;20465;-67
2021/04/15 09:21:33;;;;;;;5.10;4.60;;;8.10;99.90;;;;;;5011772;28;20968;-68
2021/04/15 09:24:13;;;;;;;7.60;5.37;;;8.30;99.90;;;;;;5010970;28;20553;-67
2021/04/15 09:27:05;;;;;;;14.90;5.23;;;8.80;99.90;;;;;;5016767;28;20520;-68
2021/04/15 09:29:38;;;;;;;7.40;5.07;;;8.80;98.00;;;;;;5015236;28;20528;-68
2021/04/15 09:32:10;;;;;;;5.43;4.93;;;9.10;99.30;;;;;;5008245;28;20616;-68
2021/04/15 09:35:08;;;;;;;6.43;4.77;;;9.60;96.80;;;;;;5008006;28;20528;-67
2021/04/15 09:38:10;;;;;;;6.63;5.47;;;9.70;97.70;;;;;;5007926;28;20458;-68
2021/04/15 09:40:51;;;;;;;8.00;5.90;;;10.20;95.80;;;;;;4985105;28;20453;-68
2021/04/15 09:43:28;;;;;;;5.87;4.60;;;11.20;94.50;;;;;;5007748;28;20452;-67
2021/04/15 09:46:10;;;;;;;6.10;4.73;;;11.40;90.70;;;;;;5007866;28;20974;-68
2021/04/15 09:48:59;;;;;;;9.83;5.37;;;11.20;91.10;;;;;;5007981;28;20541;-68
2021/04/15 09:52:12;;;;;;;7.53;6.53;;;10.50;91.10;;;;;;5007587;28;21095;-67
2021/04/15 09:54:50;;;;;;;5.53;4.23;;;10.10;92.80;;;;;;5003146;28;20541;-67
2021/04/15 09:57:38;;;;;;;5.73;4.27;;;9.90;93.10;;;;;;5005424;28;20439;-67
2021/04/15 10:00:21;;;;;;;5.90;4.87;;;9.00;94.20;;;;;;5002455;28;20536;-67
2021/04/15 10:03:09;;;;;;;8.83;4.53;;;8.40;96.10;;;;;;5007462;28;20520;-68
2021/04/15 10:05:51;;;;;;;5.40;4.30;;;7.80;98.30;;;;;;5011396;28;20970;-68
2021/04/15 10:08:28;;;;;;;6.97;4.23;;;7.40;99.90;;;;;;5011205;28;20441;-67
2021/04/15 10:11:04;;;;;;;5.67;4.87;;;7.10;99.90;;;;;;5010828;28;20523;-67
2021/04/15 10:13:43;;;;;;;6.67;5.37;;;6.90;99.90;;;;;;5010636;28;20449;-67
2021/04/15 10:16:18;;;;;;;5.90;5.30;;;6.70;99.90;;;;;;5011574;28;20442;-69
2021/04/15 10:19:02;;;;;;;6.90;5.30;;;6.80;99.90;;;;;;5011195;28;20917;-68
2021/04/15 10:21:49;;;;;;;5.30;4.80;;;7.20;99.90;;;;;;5011044;28;21252;-67
2021/04/15 10:24:28;;;;;;;6.97;4.40;;;8.20;99.70;;;;;;5010767;28;20465;-67
2021/04/15 10:27:20;;;;;;;8.13;4.97;;;9.30;99.20;;;;;;5011146;28;20457;-68
2021/04/15 10:30:24;;;;;;;4.57;3.63;;;10.40;95.30;;;;;;5011484;28;20854;-67
2021/04/15 10:33:30;;;;;;;5.50;3.90;;;11.30;92.70;;;;;;5010615;28;21032;-67
2021/04/15 10:36:40;;;;;;;4.50;3.47;;;10.30;89.00;;;;;;5010857;28;20472;-66
2021/04/15 10:39:32;;;;;;;4.13;3.70;;;9.20;90.60;;;;;;5011194;28;20475;-67
2021/04/15 10:42:25;;;;;;;4.83;4.10;;;9.00;92.70;;;;;;5010925;28;20536;-66
2021/04/15 10:45:21;;;;;;;7.67;3.30;;;9.20;91.90;;;;;;5010989;28;20999;-67
2021/04/15 10:48:18;;;;;;;8.43;3.07;;;9.60;91.70;;;;;;5007532;28;20927;-67
2021/04/15 10:50:52;;;;;;;6.90;3.13;;;9.10;91.30;;;;;;5010245;28;20492;-66
2021/04/15 10:53:44;;;;;;;5.13;2.97;;;8.70;92.30;;;;;;5010331;28;20521;-68
2021/04/15 10:56:13;;;;;;;2.60;2.20;;;9.50;92.20;;;;;;5011022;28;20511;-67
2021/04/15 10:58:40;;;;;;;3.83;2.33;;;10.00;86.20;;;;;;5010526;28;20518;-67
2021/04/15 11:01:21;;;;;;;4.03;2.60;;;9.90;88.60;;;;;;5009990;28;20551;-67
2021/04/15 11:03:48;;;;;;;4.47;2.50;;;10.40;85.00;;;;;;5009911;28;20525;-68
2021/04/15 11:06:34;;;;;;;4.73;2.63;;;11.10;80.10;;;;;;5010383;28;20556;-68
2021/04/15 11:09:16;;;;;;;6.10;3.60;;;11.10;81.50;;;;;;5010326;28;20532;-68
2021/04/15 11:11:54;;;;;;;6.93;3.27;;;11.10;79.90;;;;;;5007426;28;20521;-69
2021/04/15 11:14:20;;;;;;;6.93;3.00;;;10.70;80.80;;;;;;5009229;28;20523;-68
2021/04/15 11:16:48;;;;;;;3.20;2.80;;;10.60;79.30;;;;;;5009750;28;20449;-67
2021/04/15 11:19:16;;;;;;;5.37;2.97;;;9.60;84.10;;;;;;5004285;28;20508;-67
2021/04/15 11:21:44;;;;;;;6.10;2.73;;;9.90;86.80;;;;;;5000117;28;20511;-67
2021/04/15 11:24:27;;;;;;;3.67;3.20;;;9.40;88.10;;;;;;5004937;28;20457;-67
2021/04/15 11:26:56;;;;;;;6.37;3.60;;;9.40;89.70;;;;;;5003784;28;20820;-67
2021/04/15 11:29:27;;;;;;;3.90;2.83;;;8.70;90.20;;;;;;5003865;28;20478;-69
2021/04/15 11:31:54;;;;;;;3.93;3.27;;;8.60;91.80;;;;;;5008175;28;20624;-68
2021/04/15 11:34:24;;;;;;;5.03;4.23;;;8.70;92.30;;;;;;5007023;28;20889;-69
2021/04/15 11:37:04;;;;;;;4.60;2.93;;;9.20;92.20;;;;;;4998776;28;20481;-67
2021/04/15 11:39:36;;;;;;;4.27;3.67;;;9.20;91.80;;;;;;5002351;28;20529;-68
2021/04/15 11:42:06;;;;;;;4.50;3.13;;;9.10;91.70;;;;;;5000611;28;20462;-67
2021/04/15 11:44:37;;;;;;;4.30;3.17;;;9.50;92.10;;;;;;5001307;28;20442;-67
2021/04/15 11:47:06;;;;;;;4.53;3.10;;;9.60;90.30;;;;;;5001714;28;20473;-67
2021/04/15 11:49:37;;;;;;;8.70;3.60;;;9.40;90.20;;;;;;4999649;28;20520;-66
2021/04/15 11:52:17;;;;;;;6.93;2.83;;;9.40;89.60;;;;;;5002203;28;20487;-67
2021/04/15 11:54:59;;;;;;;4.10;2.50;;;9.80;88.90;;;;;;5002252;28;20974;-67
2021/04/15 11:57:29;;;;;;;4.17;2.73;;;10.80;88.30;;;;;;5008089;28;21188;-66
2021/04/15 12:00:10;;;;;;;4.30;3.90;;;12.10;83.70;;;;;;5009266;28;20526;-66
2021/04/15 12:02:41;;;;;;;3.30;2.23;;;12.80;81.60;;;;;;5002641;28;20476;-66
2021/04/15 12:05:22;;;;;;;3.70;2.70;;;13.50;74.60;;;;;;5008869;28;20528;-65
2021/04/15 12:07:54;;;;;;;5.00;2.60;;;12.90;72.60;;;;;;5003835;28;20467;-64
2021/04/15 12:10:23;;;;;;;4.87;3.47;;;14.00;74.20;;;;;;5009563;28;20536;-65
2021/04/15 12:12:53;;;;;;;6.07;3.40;;;14.70;66.10;;;;;;5008856;28;20588;-65
2021/04/15 12:15:25;;;;;;;3.93;2.90;;;14.30;63.70;;;;;;5009088;28;20450;-67
2021/04/15 12:17:57;;;;;;;5.70;3.33;;;14.70;71.40;;;;;;5009176;28;20621;-65
2021/04/15 12:20:30;;;;;;;3.93;3.07;;;14.30;61.10;;;;;;5008836;28;20530;-65
2021/04/15 12:23:07;;;;;;;3.80;3.27;;;14.70;61.40;;;;;;5008887;28;21015;-65
2021/04/15 12:25:39;;;;;;;6.63;3.70;;;14.70;66.70;;;;;;5008180;28;20508;-66
2021/04/15 12:28:20;;;;;;;4.30;3.23;;;14.40;59.90;;;;;;5000063;28;20453;-66
2021/04/15 12:30:47;;;;;;;8.00;3.90;;;14.90;66.20;;;;;;5007274;28;21897;-66
2021/04/15 12:33:25;;;;;;;4.33;3.57;;;15.20;61.20;;;;;;5001196;28;20568;-68
2021/04/15 12:35:57;;;;;;;4.00;3.57;;;16.20;63.70;;;;;;5005146;28;20798;-68
2021/04/15 12:38:27;;;;;;;7.23;4.20;;;17.20;61.40;;;;;;5004778;28;20507;-67
2021/04/15 12:40:58;;;;;;;4.40;3.87;;;16.90;59.50;;;;;;5006401;28;20537;-67
2021/04/15 12:43:28;;;;;;;3.37;3.07;;;15.80;61.10;;;;;;5004004;28;20454;-66
2021/04/15 12:45:59;;;;;;;6.93;3.70;;;14.50;66.60;;;;;;5003087;28;20454;-66
2021/04/15 12:48:36;;;;;;;5.17;3.87;;;13.80;67.50;;;;;;5004760;28;20546;-67
2021/04/15 12:51:06;;;;;;;3.80;2.97;;;13.00;67.10;;;;;;5006148;28;20541;-67
2021/04/15 12:53:37;;;;;;;4.17;3.33;;;12.20;68.20;;;;;;5007138;28;20481;-66
2021/04/15 12:56:05;;;;;;;6.97;3.73;;;11.90;69.10;;;;;;5004846;28;20468;-67
2021/04/15 12:58:32;;;;;;;5.60;2.93;;;11.90;72.90;;;;;;5007116;28;20516;-68
2021/04/15 13:01:00;;;;;;;3.47;2.57;;;12.00;77.70;;;;;;5002047;28;21231;-65
2021/04/15 13:03:30;;;;;;;4.50;3.13;;;11.60;76.00;;;;;;5006132;28;20984;-67
2021/04/15 13:06:07;;;;;;;4.37;3.97;;;11.60;77.80;;;;;;5006504;28;20529;-68
2021/04/15 13:08:43;;;;;;;4.10;3.10;;;11.20;82.60;;;;;;5004197;28;20537;-66
2021/04/15 13:11:34;;;;;;;3.33;2.57;;;10.90;81.10;;;;;;5006747;28;20488;-65
2021/04/15 13:14:02;;;;;;;3.90;2.60;;;11.00;79.50;;;;;;5003659;28;20486;-66
2021/04/15 13:16:54;;;;;;;4.30;3.33;;;10.20;78.60;;;;;;5006333;28;21372;-67
2021/04/15 13:19:55;;;;;;;5.73;3.43;;;9.20;85.90;;;;;;5005433;28;20552;-67
2021/04/15 13:22:38;;;;;;;4.85;3.47;;;8.30;87.10;;;;;;4999809;28;20531;-66
2021/04/15 13:25:21;;;;;;;3.90;3.30;;;8.20;90.70;;;;;;5006743;28;20283;-66